Stonyford, California
Current Conditions -  °F | °C
As of 4:56 AM on Thursday 23 Oct 2014 (Local Time) from KUKI Reporting Station
Broken Clouds Broken Clouds  
Wind Chill: 58°   Ceiling: 12000
Heat Index: 58°   Visibility: 10mi
Dew Point: 53°   Wind: 0mph
Humidity: 84%   Direction: NA
Pressure: 30.02"   Gusts: NA
Location:  39.37°N, 122.55°W
Report Text: KUKI 231156Z AUTO 00000KT 10SM BKN120 14/12 A3002 RMK AO2 SLP159 T01440117 10161 20144 58009
Loading
Personal Weather Stations






























Interactive Weather Map New forecast layout! Learn more

10-Day Weather Forecast

Advertisements
Track Severe Weather on mobile